createdAt,value
2022-10-25T00:00:51.659Z,12.77
2022-10-25T00:03:19.998Z,15.33
2022-10-25T00:05:48.237Z,16.33
2022-10-25T00:08:16.615Z,11.63
2022-10-25T00:10:44.873Z,15.97
2022-10-25T00:13:14.468Z,19.93
2022-10-25T00:15:42.743Z,9.70
2022-10-25T00:18:11.060Z,11.73
2022-10-25T00:20:39.523Z,12.90
2022-10-25T00:23:07.860Z,14.77
2022-10-25T00:25:36.075Z,10.90
2022-10-25T00:28:04.326Z,11.23
2022-10-25T00:30:34.006Z,11.50
2022-10-25T00:33:02.274Z,10.43
2022-10-25T00:35:30.629Z,13.13
2022-10-25T00:38:00.917Z,11.77
2022-10-25T00:40:29.159Z,11.07
2022-10-25T00:42:57.367Z,9.83
2022-10-25T00:45:28.264Z,7.73
2022-10-25T00:48:02.920Z,8.23
2022-10-25T00:50:36.995Z,10.53
2022-10-25T00:53:11.307Z,9.37
2022-10-25T00:55:45.672Z,9.80
2022-10-25T00:58:17.567Z,10.63
2022-10-25T01:00:49.290Z,10.57
2022-10-25T01:03:22.299Z,13.23
2022-10-25T01:05:52.036Z,6.50
2022-10-25T01:08:22.403Z,11.23
2022-10-25T01:10:51.544Z,7.80
2022-10-25T01:13:19.968Z,9.10
2022-10-25T01:15:59.722Z,5.67
2022-10-25T01:18:38.790Z,6.70
2022-10-25T01:21:32.389Z,7.80
2022-10-25T01:24:29.151Z,12.27
2022-10-25T01:27:13.498Z,8.10
2022-10-25T01:30:07.201Z,8.93
2022-10-25T01:32:58.572Z,8.37
2022-10-25T01:35:30.910Z,7.57
2022-10-25T01:38:22.166Z,6.20
2022-10-25T01:40:57.162Z,9.67
2022-10-25T01:43:35.257Z,6.37
2022-10-25T01:46:13.830Z,7.40
2022-10-25T01:48:49.626Z,7.20
2022-10-25T01:51:19.558Z,5.73
2022-10-25T01:53:49.642Z,7.67
2022-10-25T01:56:25.414Z,9.63
2022-10-25T01:59:10.647Z,8.90
2022-10-25T02:01:52.199Z,7.00
2022-10-25T02:04:30.312Z,8.83
2022-10-25T02:07:07.497Z,8.30
2022-10-25T02:09:43.787Z,7.07
2022-10-25T02:12:18.672Z,7.47
2022-10-25T02:14:54.420Z,4.90
2022-10-25T02:17:26.646Z,4.40
2022-10-25T02:20:00.538Z,8.40
2022-10-25T02:22:31.556Z,5.73
2022-10-25T02:25:01.074Z,10.00
2022-10-25T02:27:31.381Z,6.57
2022-10-25T02:30:01.186Z,4.13
2022-10-25T02:32:29.544Z,5.17
2022-10-25T02:34:59.302Z,5.53
2022-10-25T02:37:27.654Z,6.37
2022-10-25T02:39:56.360Z,4.90
2022-10-25T02:42:24.745Z,7.73
2022-10-25T02:44:52.925Z,5.07
2022-10-25T02:47:21.277Z,7.83
2022-10-25T02:49:49.580Z,5.67
2022-10-25T02:52:19.331Z,5.00
2022-10-25T02:54:47.618Z,8.13
2022-10-25T02:57:15.885Z,4.27
2022-10-25T02:59:44.183Z,6.20
2022-10-25T03:02:13.401Z,4.57
2022-10-25T03:04:41.696Z,6.10
2022-10-25T03:07:09.973Z,3.03
2022-10-25T03:09:39.605Z,7.93
2022-10-25T03:12:08.075Z,2.87
2022-10-25T03:14:36.362Z,2.93
2022-10-25T03:17:06.498Z,7.17
2022-10-25T03:19:34.737Z,7.73
2022-10-25T03:22:03.775Z,5.43
2022-10-25T03:24:31.975Z,4.43
2022-10-25T03:27:02.780Z,5.90
2022-10-25T03:29:31.186Z,6.47
2022-10-25T03:31:59.705Z,3.73
2022-10-25T03:34:28.237Z,6.33
2022-10-25T03:36:57.810Z,5.03
2022-10-25T03:39:26.387Z,9.03
2022-10-25T03:41:54.598Z,6.33
2022-10-25T03:44:24.351Z,6.37
2022-10-25T03:46:52.547Z,7.77
2022-10-25T03:49:20.828Z,3.07
2022-10-25T03:51:52.332Z,4.60
2022-10-25T03:54:25.640Z,2.97
2022-10-25T03:56:57.202Z,9.40
2022-10-25T03:59:27.191Z,6.30
2022-10-25T04:01:55.746Z,7.13
2022-10-25T04:04:24.049Z,2.73
2022-10-25T04:06:52.442Z,4.00
2022-10-25T04:09:20.707Z,5.37
2022-10-25T04:11:48.998Z,1.60
2022-10-25T04:14:17.254Z,6.03
2022-10-25T04:16:46.897Z,6.13
2022-10-25T04:19:15.135Z,5.33
2022-10-25T04:21:43.584Z,4.80
2022-10-25T04:24:12.743Z,4.70
2022-10-25T04:26:41.100Z,3.00
2022-10-25T04:29:09.593Z,2.53
2022-10-25T04:31:37.908Z,5.93
2022-10-25T04:34:07.615Z,3.43
2022-10-25T04:36:35.867Z,5.80
2022-10-25T04:39:04.107Z,3.20
2022-10-25T04:41:32.398Z,4.17
2022-10-25T04:44:00.626Z,4.03
2022-10-25T04:46:28.935Z,7.43
2022-10-25T04:48:57.423Z,3.37
2022-10-25T04:51:27.134Z,3.87
2022-10-25T04:53:55.426Z,2.77
2022-10-25T04:56:23.902Z,6.23
2022-10-25T04:58:52.123Z,3.80
2022-10-25T05:01:20.906Z,4.37
2022-10-25T05:03:49.962Z,4.33
2022-10-25T05:06:20.653Z,5.47
2022-10-25T05:08:51.861Z,6.17
2022-10-25T05:11:22.567Z,5.67
2022-10-25T05:13:51.166Z,4.03
2022-10-25T05:16:23.248Z,4.80
2022-10-25T05:18:54.518Z,5.27
2022-10-25T05:24:01.828Z,2.90
2022-10-25T05:26:31.599Z,4.33
2022-10-25T05:29:00.200Z,2.43
2022-10-25T05:31:29.693Z,3.77
2022-10-25T05:33:59.886Z,7.40
2022-10-25T05:36:29.676Z,4.00
2022-10-25T05:38:59.405Z,2.90
2022-10-25T05:41:30.675Z,3.77
2022-10-25T05:44:01.654Z,4.77
2022-10-25T05:46:29.895Z,9.13
2022-10-25T05:49:00.490Z,3.47
2022-10-25T05:51:37.611Z,4.37
2022-10-25T05:54:09.236Z,3.67
2022-10-25T05:56:38.094Z,1.90
2022-10-25T05:59:09.073Z,7.87
2022-10-25T06:01:39.521Z,5.53
2022-10-25T06:04:08.499Z,3.53
2022-10-25T06:06:37.275Z,2.80
2022-10-25T06:09:07.524Z,9.83
2022-10-25T06:11:35.919Z,3.80
2022-10-25T06:14:04.310Z,5.03
2022-10-25T06:16:32.966Z,6.53
2022-10-25T06:19:01.262Z,3.17
2022-10-25T06:21:30.562Z,3.60
2022-10-25T06:24:00.525Z,3.57
2022-10-25T06:26:31.676Z,3.00
2022-10-25T06:29:01.785Z,5.70
2022-10-25T06:31:31.104Z,4.30
2022-10-25T06:34:00.283Z,6.27
2022-10-25T06:36:31.207Z,3.77
2022-10-25T06:39:05.786Z,4.13
2022-10-25T06:41:38.014Z,4.90
2022-10-25T06:44:07.846Z,1.57
2022-10-25T06:47:11.804Z,3.53
2022-10-25T06:49:27.809Z,2.83
2022-10-25T06:51:56.390Z,5.23
2022-10-25T06:54:26.804Z,6.93
2022-10-25T06:56:56.563Z,1.50
2022-10-25T06:59:25.042Z,3.97
2022-10-25T07:01:55.352Z,4.40
2022-10-25T07:04:24.774Z,3.57
2022-10-25T07:06:55.307Z,2.93
2022-10-25T07:09:23.866Z,3.10
2022-10-25T07:11:52.195Z,5.10
2022-10-25T07:14:22.692Z,7.00
2022-10-25T07:16:50.950Z,4.17
2022-10-25T07:19:19.249Z,4.50
2022-10-25T07:21:47.498Z,3.33
2022-10-25T07:24:15.878Z,3.60
2022-10-25T07:26:44.551Z,7.33
2022-10-25T07:29:12.730Z,5.20
2022-10-25T07:31:44.452Z,6.10
2022-10-25T07:34:15.017Z,3.27
2022-10-25T07:36:43.552Z,2.23
2022-10-25T07:39:11.864Z,3.77
2022-10-25T07:41:40.423Z,5.30
2022-10-25T07:44:13.031Z,4.30
2022-10-25T07:46:46.005Z,6.83
2022-10-25T07:49:14.959Z,1.67
2022-10-25T07:51:43.308Z,4.93
2022-10-25T07:54:11.538Z,3.30
2022-10-25T07:56:39.744Z,2.27
2022-10-25T07:59:08.020Z,5.90
2022-10-25T08:01:36.776Z,2.20
2022-10-25T08:04:06.634Z,6.70
2022-10-25T08:06:36.204Z,7.77
2022-10-25T08:09:14.575Z,4.33
2022-10-25T08:11:43.432Z,2.53
2022-10-25T08:14:11.746Z,2.07
2022-10-25T08:16:40.073Z,5.67
2022-10-25T08:19:09.680Z,5.27
2022-10-25T08:21:37.942Z,4.13
2022-10-25T08:24:07.124Z,5.80
2022-10-25T08:26:36.991Z,2.47
2022-10-25T08:29:05.789Z,3.83
2022-10-25T08:31:34.129Z,6.43
2022-10-25T08:34:02.422Z,6.43
2022-10-25T08:36:32.123Z,4.37
2022-10-25T08:39:00.737Z,4.00
2022-10-25T08:41:42.325Z,9.47
2022-10-25T08:44:17.575Z,10.80
2022-10-25T08:46:57.626Z,8.27
2022-10-25T08:49:31.022Z,9.03
2022-10-25T08:52:02.997Z,11.67
2022-10-25T08:54:35.256Z,8.43
2022-10-25T08:57:16.212Z,9.93
2022-10-25T08:59:53.695Z,7.90
2022-10-25T09:02:28.249Z,7.90
2022-10-25T09:04:56.752Z,5.70
2022-10-25T09:07:56.541Z,6.00
2022-10-25T09:10:35.311Z,5.07
2022-10-25T09:13:12.326Z,6.10
2022-10-25T09:16:01.424Z,4.27
2022-10-25T09:18:40.973Z,3.80
2022-10-25T09:21:22.175Z,5.43
2022-10-25T09:24:07.192Z,2.07
2022-10-25T09:26:42.309Z,2.53
2022-10-25T09:29:17.805Z,13.60
2022-10-25T09:31:51.040Z,1.60
2022-10-25T09:34:21.618Z,2.33
2022-10-25T09:36:54.068Z,4.47
2022-10-25T09:39:26.583Z,2.93
2022-10-25T09:41:57.330Z,8.33
2022-10-25T09:44:36.334Z,5.70
2022-10-25T09:47:22.277Z,6.47
2022-10-25T09:49:57.613Z,7.17
2022-10-25T09:52:33.411Z,6.00
2022-10-25T09:55:17.111Z,6.93
2022-10-25T09:57:46.557Z,7.20
2022-10-25T10:00:16.215Z,5.87
2022-10-25T10:02:44.652Z,5.93
2022-10-25T10:05:17.198Z,4.87
2022-10-25T10:07:47.063Z,7.43
2022-10-25T10:10:20.318Z,4.40
2022-10-25T10:12:52.994Z,3.47
2022-10-25T10:15:27.351Z,3.80
2022-10-25T10:18:20.958Z,4.03
2022-10-25T10:21:08.093Z,8.17
2022-10-25T10:23:46.594Z,4.17
2022-10-25T10:26:23.118Z,5.83
2022-10-25T10:28:53.515Z,6.33
2022-10-25T10:31:22.114Z,5.53
2022-10-25T10:33:52.570Z,6.83
2022-10-25T10:36:23.705Z,5.43
2022-10-25T10:38:52.210Z,4.23
2022-10-25T10:41:28.497Z,4.83
2022-10-25T10:44:13.147Z,7.18
2022-10-25T10:46:51.710Z,5.78
2022-10-25T10:49:21.992Z,8.20
2022-10-25T10:51:50.437Z,6.38
2022-10-25T10:54:28.278Z,9.20
2022-10-25T10:57:00.851Z,6.55
2022-10-25T10:59:38.379Z,5.50
2022-10-25T11:02:27.260Z,6.00
2022-10-25T11:04:58.048Z,6.35
2022-10-25T11:07:31.130Z,11.57
2022-10-25T11:10:21.280Z,7.07
2022-10-25T11:13:23.014Z,5.07
2022-10-25T11:16:09.980Z,9.15
2022-10-25T11:18:51.314Z,5.95
2022-10-25T11:21:44.770Z,5.55
2022-10-25T11:24:26.026Z,8.30
2022-10-25T11:26:57.520Z,8.68
2022-10-25T11:29:45.454Z,6.43
2022-10-25T11:32:47.569Z,9.30
2022-10-25T11:35:33.282Z,8.52
2022-10-25T11:38:06.969Z,4.95
2022-10-25T11:40:42.289Z,8.57
2022-10-25T11:43:27.983Z,8.93
2022-10-25T11:46:05.135Z,8.85
2022-10-25T11:49:02.635Z,9.25
2022-10-25T11:51:39.213Z,8.15
2022-10-25T11:54:26.730Z,6.90
2022-10-25T11:57:08.442Z,9.48
2022-10-25T11:59:53.841Z,7.88
2022-10-25T12:02:41.075Z,12.55
2022-10-25T12:05:26.562Z,6.68
2022-10-25T12:08:08.728Z,7.85
2022-10-25T12:10:37.795Z,7.10
2022-10-25T12:13:15.904Z,8.10
2022-10-25T12:15:47.345Z,7.07
2022-10-25T12:18:25.358Z,12.63
2022-10-25T12:20:55.801Z,12.90
2022-10-25T12:23:27.531Z,9.27
2022-10-25T12:26:00.038Z,8.95
2022-10-25T12:28:35.408Z,7.80
2022-10-25T12:31:09.756Z,8.07
2022-10-25T12:33:43.901Z,10.10
2022-10-25T12:36:21.125Z,8.40
2022-10-25T12:38:49.433Z,9.07
2022-10-25T12:41:22.786Z,9.85
2022-10-25T12:44:10.063Z,12.15
2022-10-25T12:46:52.890Z,10.18
2022-10-25T12:49:59.255Z,9.95
2022-10-25T12:52:34.881Z,10.85
2022-10-25T12:55:34.962Z,8.82
2022-10-25T12:58:21.070Z,12.23
2022-10-25T13:01:05.852Z,10.15
2022-10-25T13:04:01.897Z,14.23
2022-10-25T13:06:36.782Z,13.73
2022-10-25T13:09:11.069Z,12.57
2022-10-25T13:11:43.308Z,11.05
2022-10-25T13:14:23.354Z,12.23
2022-10-25T13:16:51.653Z,13.45
2022-10-25T13:19:53.415Z,10.95
2022-10-25T13:22:39.408Z,12.00
2022-10-25T13:25:19.520Z,12.23
2022-10-25T13:28:23.350Z,10.30
2022-10-25T13:30:51.569Z,12.48
2022-10-25T13:33:33.605Z,12.52
2022-10-25T13:36:04.988Z,12.55
2022-10-25T13:38:39.348Z,10.77
2022-10-25T13:41:20.751Z,12.48
2022-10-25T13:44:01.218Z,22.17
2022-10-25T13:46:37.619Z,15.23
2022-10-25T13:49:29.738Z,11.27
2022-10-25T13:52:00.132Z,15.40
2022-10-25T13:54:39.083Z,11.10
2022-10-25T13:57:49.656Z,10.15
2022-10-25T14:00:37.503Z,15.50
2022-10-25T14:03:35.026Z,11.98
2022-10-25T14:06:28.950Z,17.67
2022-10-25T14:09:08.952Z,15.15
2022-10-25T14:11:42.432Z,11.35
2022-10-25T14:14:37.626Z,13.13
2022-10-25T14:17:15.962Z,13.15
2022-10-25T14:19:49.117Z,19.45
2022-10-25T14:22:19.277Z,11.85
2022-10-25T14:24:52.631Z,13.38
2022-10-25T14:27:30.143Z,9.52
2022-10-25T14:30:26.902Z,12.85
2022-10-25T14:32:57.593Z,13.23
2022-10-25T14:35:35.388Z,10.32
2022-10-25T14:38:14.967Z,17.65
2022-10-25T14:40:43.295Z,18.00
2022-10-25T14:43:23.266Z,13.05
2022-10-25T14:46:05.442Z,13.20
2022-10-25T14:48:34.407Z,11.50
2022-10-25T14:51:07.346Z,15.57
2022-10-25T14:53:37.945Z,16.95
2022-10-25T14:56:08.607Z,16.33
2022-10-25T14:58:43.326Z,13.65
2022-10-25T15:01:13.549Z,15.07
2022-10-25T15:03:45.563Z,15.43
2022-10-25T15:06:15.610Z,16.88
2022-10-25T15:08:51.516Z,13.95
2022-10-25T15:11:21.601Z,15.30
2022-10-25T15:13:51.658Z,11.52
2022-10-25T15:16:30.777Z,12.82
2022-10-25T15:19:20.565Z,18.90
2022-10-25T15:21:50.826Z,17.25
2022-10-25T15:24:21.633Z,16.83
2022-10-25T15:26:57.693Z,19.80
2022-10-25T15:29:45.563Z,14.23
2022-10-25T15:32:18.404Z,15.75
2022-10-25T15:34:49.765Z,15.25
2022-10-25T15:37:20.192Z,12.98
2022-10-25T15:39:49.645Z,17.73
2022-10-25T15:42:18.573Z,18.02
2022-10-25T15:44:46.862Z,14.50
2022-10-25T15:47:34.945Z,16.73
2022-10-25T15:50:05.763Z,15.90
2022-10-25T15:52:34.110Z,20.08
2022-10-25T15:55:02.394Z,17.58
2022-10-25T15:57:30.604Z,12.82
2022-10-25T15:59:59.826Z,16.05
2022-10-25T16:02:28.694Z,17.30
2022-10-25T16:04:58.571Z,20.50
2022-10-25T16:07:26.784Z,14.40
2022-10-25T16:09:55.023Z,18.80
2022-10-25T16:12:33.780Z,16.65
2022-10-25T16:15:02.087Z,16.05
2022-10-25T16:17:30.354Z,14.07
2022-10-25T16:20:00.038Z,21.48
2022-10-25T16:22:28.362Z,16.45
2022-10-25T16:24:56.622Z,18.05
2022-10-25T16:27:24.912Z,13.00
2022-10-25T16:29:53.286Z,23.25
2022-10-25T16:32:22.519Z,15.88
2022-10-25T16:34:50.787Z,15.35
2022-10-25T16:37:20.575Z,15.73
2022-10-25T16:39:48.945Z,15.32
2022-10-25T16:42:31.065Z,23.80
2022-10-25T16:45:00.427Z,15.15
2022-10-25T16:47:29.478Z,15.48
2022-10-25T16:49:57.783Z,20.87
2022-10-25T16:52:27.389Z,15.68
2022-10-25T16:54:55.665Z,12.70
2022-10-25T16:57:23.887Z,20.40
2022-10-25T16:59:52.145Z,13.03
2022-10-25T17:02:22.610Z,17.65
2022-10-25T17:04:51.038Z,15.50
2022-10-25T17:07:19.582Z,16.97
2022-10-25T17:09:49.306Z,14.47
2022-10-25T17:12:17.585Z,11.97
2022-10-25T17:14:45.953Z,13.80
2022-10-25T17:17:15.324Z,14.88
2022-10-25T17:19:43.593Z,15.90
2022-10-25T17:22:11.836Z,16.20
2022-10-25T17:24:41.052Z,13.00
2022-10-25T17:27:10.704Z,17.13
2022-10-25T17:29:39.000Z,15.40
2022-10-25T17:32:07.577Z,15.17
2022-10-25T17:34:36.768Z,12.30
2022-10-25T17:37:05.519Z,13.47
2022-10-25T17:39:33.782Z,12.83
2022-10-25T17:42:02.811Z,13.73
2022-10-25T17:44:32.771Z,12.97
2022-10-25T17:47:03.099Z,15.73
2022-10-25T17:49:32.626Z,16.47
2022-10-25T17:52:00.871Z,12.57
2022-10-25T17:54:29.153Z,18.23
2022-10-25T17:57:01.041Z,19.67
2022-10-25T17:59:30.381Z,13.67
2022-10-25T18:02:00.760Z,18.00
2022-10-25T18:04:36.533Z,14.43
2022-10-25T18:07:16.006Z,13.70
2022-10-25T18:09:44.227Z,14.17
2022-10-25T18:12:12.509Z,14.80
2022-10-25T18:14:40.784Z,13.07
2022-10-25T18:17:10.494Z,18.40
2022-10-25T18:19:38.735Z,16.43
2022-10-25T18:22:06.995Z,13.70
2022-10-25T18:24:35.714Z,17.27
2022-10-25T18:27:04.466Z,18.10
2022-10-25T18:29:34.462Z,22.40
2022-10-25T18:32:02.925Z,15.30
2022-10-25T18:34:33.173Z,15.07
2022-10-25T18:37:01.479Z,13.03
2022-10-25T18:39:29.718Z,15.87
2022-10-25T18:41:58.792Z,16.70
2022-10-25T18:44:27.165Z,15.80
2022-10-25T18:46:56.415Z,17.23
2022-10-25T18:49:24.697Z,23.33
2022-10-25T18:51:54.339Z,24.30
2022-10-25T18:54:22.607Z,23.97
2022-10-25T18:56:50.812Z,23.73
2022-10-25T18:59:19.121Z,27.60
2022-10-25T19:01:47.511Z,21.83
2022-10-25T19:04:15.962Z,27.30
2022-10-25T19:06:44.469Z,19.53
2022-10-25T19:09:14.934Z,23.37
2022-10-25T19:11:43.195Z,18.93
2022-10-25T19:14:11.412Z,21.77
2022-10-25T19:16:41.354Z,21.77
2022-10-25T19:19:12.075Z,20.07
2022-10-25T19:21:40.490Z,24.97
2022-10-25T19:24:11.949Z,22.67
2022-10-25T19:26:41.983Z,24.60
2022-10-25T19:29:10.784Z,24.50
2022-10-25T19:31:39.151Z,24.63
2022-10-25T19:34:07.357Z,22.87
2022-10-25T19:36:35.649Z,27.67
2022-10-25T19:39:04.733Z,25.87
2022-10-25T19:41:33.034Z,28.70
2022-10-25T19:44:02.715Z,20.77
2022-10-25T19:46:30.974Z,16.93
2022-10-25T19:49:00.373Z,21.10
2022-10-25T19:51:28.987Z,20.67
2022-10-25T19:53:57.596Z,23.47
2022-10-25T19:56:25.876Z,19.90
2022-10-25T19:58:54.071Z,24.33
2022-10-25T20:01:25.293Z,21.77
2022-10-25T20:03:55.796Z,23.73
2022-10-25T20:06:25.936Z,20.97
2022-10-25T20:08:55.154Z,26.77
2022-10-25T20:11:24.635Z,19.00
2022-10-25T20:13:55.015Z,17.67
2022-10-25T20:16:25.333Z,19.90
2022-10-25T20:18:53.896Z,24.63
2022-10-25T20:21:24.206Z,20.40
2022-10-25T20:23:56.467Z,21.77
2022-10-25T20:26:26.585Z,27.77
2022-10-25T20:28:55.836Z,20.23
2022-10-25T20:31:26.656Z,22.80
2022-10-25T20:33:56.863Z,23.73
2022-10-25T20:36:25.600Z,20.13
2022-10-25T20:38:54.224Z,19.17
2022-10-25T20:41:25.449Z,21.97
2022-10-25T20:43:55.910Z,22.73
2022-10-25T20:46:27.084Z,20.80
2022-10-25T20:48:56.025Z,19.13
2022-10-25T20:51:24.545Z,18.50
2022-10-25T20:53:52.974Z,25.13
2022-10-25T20:56:22.854Z,22.53
2022-10-25T20:58:51.442Z,19.10
2022-10-25T21:01:20.856Z,19.43
2022-10-25T21:03:50.732Z,16.63
2022-10-25T21:06:18.951Z,23.90
2022-10-25T21:08:47.234Z,21.40
2022-10-25T21:11:15.467Z,17.57
2022-10-25T21:13:43.803Z,19.37
2022-10-25T21:16:13.931Z,20.27
2022-10-25T21:18:42.864Z,22.70
2022-10-25T21:21:18.550Z,15.27
2022-10-25T21:23:47.373Z,20.27
2022-10-25T21:26:15.853Z,18.13
2022-10-25T21:28:44.186Z,21.03
2022-10-25T21:31:13.753Z,21.33
2022-10-25T21:33:49.869Z,27.80
2022-10-25T21:36:22.137Z,19.33
2022-10-25T21:38:50.716Z,24.17
2022-10-25T21:41:20.987Z,25.93
2022-10-25T21:43:51.138Z,21.00
2022-10-25T21:46:21.824Z,19.27
2022-10-25T21:48:51.162Z,24.43
2022-10-25T21:51:21.822Z,21.03
2022-10-25T21:53:50.078Z,25.80
2022-10-25T21:56:20.198Z,22.77
2022-10-25T21:58:50.958Z,20.00
2022-10-25T22:01:25.749Z,25.37
2022-10-25T22:03:59.333Z,22.17
2022-10-25T22:06:29.470Z,22.50
2022-10-25T22:08:58.327Z,21.67
2022-10-25T22:11:28.300Z,27.47
2022-10-25T22:13:58.133Z,19.43
2022-10-25T22:16:27.173Z,24.50
2022-10-25T22:18:58.950Z,21.53
2022-10-25T22:21:30.596Z,20.57
2022-10-25T22:23:59.501Z,21.87
2022-10-25T22:26:28.536Z,27.40
2022-10-25T22:28:58.797Z,21.83
2022-10-25T22:31:28.678Z,23.13
2022-10-25T22:33:58.691Z,17.33
2022-10-25T22:36:30.049Z,25.37
2022-10-25T22:38:58.858Z,35.37
2022-10-25T22:41:28.903Z,23.43
2022-10-25T22:43:57.470Z,29.83
2022-10-25T22:46:27.373Z,25.93
2022-10-25T22:48:57.210Z,23.13
2022-10-25T22:51:27.174Z,19.03
2022-10-25T22:53:56.902Z,29.10
2022-10-25T22:56:26.580Z,29.13
2022-10-25T22:58:56.847Z,21.17
2022-10-25T23:01:27.393Z,17.70
2022-10-25T23:03:57.377Z,24.57
2022-10-25T23:06:27.624Z,21.43
2022-10-25T23:08:58.574Z,21.63
2022-10-25T23:11:28.619Z,21.10
2022-10-25T23:13:58.338Z,26.63
2022-10-25T23:16:26.860Z,21.90
2022-10-25T23:18:56.627Z,27.17
2022-10-25T23:21:26.818Z,27.20
2022-10-25T23:23:56.128Z,19.73
2022-10-25T23:26:27.634Z,22.30
2022-10-25T23:28:56.818Z,31.00
2022-10-25T23:31:26.066Z,24.80
2022-10-25T23:33:55.836Z,25.67
2022-10-25T23:36:26.486Z,26.23
2022-10-25T23:38:55.604Z,23.70
2022-10-25T23:41:25.502Z,22.30
2022-10-25T23:43:53.769Z,30.30
2022-10-25T23:46:22.073Z,19.77
2022-10-25T23:48:50.352Z,23.93
2022-10-25T23:51:20.227Z,25.73
2022-10-25T23:53:48.884Z,24.63
2022-10-25T23:56:17.133Z,32.27
2022-10-25T23:58:50.498Z,21.10
